Umbrete, Spain
Current Conditions -  °F | °C
As of 3:30 AM on Monday 24 Nov 2014 (Local Time) from LEZL Reporting Station
Few Clouds Few Clouds  
Wind Chill: 61°   Ceiling: Unl
Heat Index: 61°   Visibility: 6mi
Dew Point: 59°   Wind: 21mph
Humidity: 94%   Direction: 70°ENE
Pressure: 29.83"   Gusts: NA
Location:  37.37°N, 6.16°W
Report Text: LEZL 240230Z 07018KT 9999 FEW035 16/15 Q1010 NOSIG
Loading
Personal Weather Stations






























Interactive Weather Map New forecast layout! Learn more

10-Day Weather Forecast

Advertisements
Track Severe Weather on mobile